aviador You're here:

YSRI Decoded Metar

RICHMOND in AUSTRALIA
Report Time2017-07-24 16:30:00
UTC Time2017-07-24 16:44:43
Flight Rules vfr VFR
Wind330° at 06 kt
W.Decomp.*RWY 28: 4.7 kt HW 3.7 kt RCW
W.Rank330° ranks 33
Current wind is above 330° avg. (5.7)
Visibility9999 m
Phenomena:N/A
Clouds:N/A
Expected CloudBase > 1,200 ft AGL from Temp-Dew spread
CeilingNone
Temp06°C (ISA -9)
Dew Point03°C (81% RH)
AAT2.3°C
QNH1021 hPa
Density Alt-1,168 ft
Elevation69 ft
Report Wrong Elevation
Raw Report
METAR YSRI 241630Z AUTO 33006KT 9999 // NCD 06/03 Q1021
RF00.0/000.0 PRESENT WEATHER SENSOR US=

Extra information for YSRI:More info

Metar Taf Metar & Taf Last 4 Metars F.Rules Stats Wind Profile Meteogram Temp Stats Airport Information Weather charts Add Link Nearby VenuesMetar ALERT Operation Metar Decoded Social comments